To NAV CANADA Home Page Login to a new session Search on AWWS site Disclaimer Vers la page française équivalente Tips FAQ What's new on the site To the Forecasts and Observations / NOTAM section To "File a Flight Plan" website Publications and other links Update of the User's profile FIC Telephone Numbers My Weather Data Folder Route Weather Data Regional Weather Data Local Weather Data To the Forecasts and Observations / NOTAM section
Request Generated 08/19/2022 at 11:18:35 UTC . Weather information available at that time is displayed.

METAR/TAF

If you find any discrepancies between the coded METAR/TAF and the plain language METAR/TAF please use the coded METAR/TAF. LWIS bulletins are not decoded in plain language.

VANCOUVER INTL/BC    (show WxCam)

METAR CYVR 191100Z 29003KT 15SM FEW035 BKN160 BKN240 20/20 A2986 RMK SC1AC5CI2 TR SLP113 DENSITY ALT 700FT=
METAR
LOCATION
CYVR - VANCOUVER INTL/BC
DATE - TIME
19 AUGUST 2022 - 1100 UTC
WIND
290 TRUE @ 3  KNOTS
VISIBILITY
15 STAT.  MILES
RUNWAY VISUAL RANGE
WEATHER
CLOUDINESS
FEW CLOUDS (1/8 - 2/8) 3500  FT
BROKEN CLOUDS (5/8 - 7/8) 16000  FT
BROKEN CLOUDS (5/8 - 7/8) 24000  FT
TEMP / DEWPOINT
20 C / 20 C
ALTIMETER
29.86 IN HG
RECENT WEATHER
WIND SHEAR

METAR CYVR 191000Z 28005KT 15SM FEW030 BKN160 BKN240 19/19 A2985 RMK SC1AC5CI1 TR SLP111 DENSITY ALT 600FT=
METAR
LOCATION
CYVR - VANCOUVER INTL/BC
DATE - TIME
19 AUGUST 2022 - 1000 UTC
WIND
280 TRUE @ 5  KNOTS
VISIBILITY
15 STAT.  MILES
RUNWAY VISUAL RANGE
WEATHER
CLOUDINESS
FEW CLOUDS (1/8 - 2/8) 3000  FT
BROKEN CLOUDS (5/8 - 7/8) 16000  FT
BROKEN CLOUDS (5/8 - 7/8) 24000  FT
TEMP / DEWPOINT
19 C / 19 C
ALTIMETER
29.85 IN HG
RECENT WEATHER
WIND SHEAR

METAR CYVR 190900Z 28004KT 15SM FEW160 FEW250 20/20 A2985 RMK AC1CI1 SLP111 DEN TY ALT 700FT=
METAR
LOCATION
CYVR - VANCOUVER INTL/BC
DATE - TIME
19 AUGUST 2022 - 0900 UTC
WIND
280 TRUE @ 4  KNOTS
VISIBILITY
15 STAT.  MILES
RUNWAY VISUAL RANGE
WEATHER
CLOUDINESS
FEW CLOUDS (1/8 - 2/8) 16000  FT
FEW CLOUDS (1/8 - 2/8) 25000  FT
TEMP / DEWPOINT
20 C / 20 C
ALTIMETER
29.85 IN HG
RECENT WEATHER
WIND SHEAR

TAF CYVR 190840Z 1909/2012 VRB03KT P6SM SCT150 FM191500 VRB03KT P6SM BKN120 TEMPO 1915/1920 P6SM -SHRA BECMG 1916/1918 16010KT FM192200 24007KT P6SM FEW100 BECMG 2003/2005 10006KT RMK NXT FCST BY 191200Z=
TAF
LOCATION

CYVR - VANCOUVER INTL/BC
VALIDITY [UTC]
19 AUG - 0840 to
20 AUG - 1200
 
TIMES
[UTC]
WIND
[DEGREES TRUE]
VISIBILITY
[STAT. MILES]
WEATHER
CLOUDINESS
[FEET AGL]
 
19 AUG - 0900 to
19 AUG - 1500
VARIABLE @ 3 KNOTS
6+
NIL
15000 SCATTERED
 
19 AUG - 1500 to
19 AUG - 2200
VARIABLE @ 3 KNOTS
6+
NIL
12000 BROKEN
TEMPORARY CHANGES
19 AUG - 1500 to
19 AUG - 2000
 
6+
LIGHT RAIN SHOWER
 
BECOMING
19 AUG - 1600 to
19 AUG - 1800
160 @ 10 KNOTS
 
 
 
 
19 AUG - 2200 to
20 AUG - 1200
240 @ 7 KNOTS
6+
NIL
10000 FEW
BECOMING
20 AUG - 0300 to
20 AUG - 0500
100 @ 6 KNOTS
 
 
 
REMARKS


Your time UTC time
Weather data provided by Environment Canada and NAV CANADA